createdAt,value
2023-04-09T00:01:30.273Z,23.10
2023-04-09T00:03:56.807Z,24.17
2023-04-09T00:06:23.289Z,23.70
2023-04-09T00:08:49.850Z,23.77
2023-04-09T00:11:16.398Z,24.80
2023-04-09T00:13:42.814Z,24.67
2023-04-09T00:16:09.346Z,24.52
2023-04-09T00:18:36.197Z,24.23
2023-04-09T00:21:02.715Z,24.85
2023-04-09T00:23:29.201Z,26.02
2023-04-09T00:25:55.660Z,24.92
2023-04-09T00:28:22.139Z,26.55
2023-04-09T00:30:48.639Z,27.27
2023-04-09T00:33:15.343Z,26.80
2023-04-09T00:35:41.790Z,27.10
2023-04-09T00:38:08.259Z,27.92
2023-04-09T00:40:34.761Z,28.30
2023-04-09T00:43:02.293Z,28.05
2023-04-09T00:45:28.796Z,28.10
2023-04-09T00:47:55.608Z,28.02
2023-04-09T00:50:22.235Z,28.92
2023-04-09T00:52:48.702Z,27.98
2023-04-09T00:55:15.512Z,28.42
2023-04-09T00:57:41.981Z,29.65
2023-04-09T01:00:11.217Z,29.27
2023-04-09T01:02:38.311Z,29.63
2023-04-09T01:05:05.793Z,29.98
2023-04-09T01:08:03.237Z,31.20
2023-04-09T01:10:37.702Z,30.63
2023-04-09T01:13:10.220Z,30.83
2023-04-09T01:15:52.054Z,29.73
2023-04-09T01:18:28.971Z,29.85
2023-04-09T01:20:59.460Z,31.42
2023-04-09T01:23:37.250Z,30.65
2023-04-09T01:26:11.147Z,30.02
2023-04-09T01:28:43.358Z,28.38
2023-04-09T01:31:14.032Z,26.85
2023-04-09T01:33:44.307Z,29.38
2023-04-09T01:36:11.598Z,30.98
2023-04-09T01:38:41.487Z,29.80
2023-04-09T01:41:12.487Z,29.25
2023-04-09T01:43:39.887Z,28.80
2023-04-09T01:46:06.512Z,28.35
2023-04-09T01:48:34.104Z,28.92
2023-04-09T01:51:01.347Z,29.35
2023-04-09T01:53:31.110Z,28.50
2023-04-09T01:56:01.485Z,28.35
2023-04-09T01:58:28.159Z,27.10
2023-04-09T02:01:06.564Z,28.45
2023-04-09T02:03:37.996Z,25.95
2023-04-09T02:06:15.630Z,26.67
2023-04-09T02:08:47.115Z,25.70
2023-04-09T02:11:15.952Z,24.33
2023-04-09T02:13:44.076Z,25.60
2023-04-09T02:16:13.741Z,25.60
2023-04-09T02:18:40.284Z,25.95
2023-04-09T02:21:07.308Z,25.80
2023-04-09T02:23:33.718Z,25.92
2023-04-09T02:26:01.913Z,25.20
2023-04-09T02:28:28.453Z,25.45
2023-04-09T02:30:54.924Z,26.20
2023-04-09T02:33:21.497Z,25.75
2023-04-09T02:35:47.972Z,27.58
2023-04-09T02:38:15.899Z,27.15
2023-04-09T02:40:42.417Z,25.85
2023-04-09T02:43:10.149Z,26.60
2023-04-09T02:45:36.738Z,27.67
2023-04-09T02:48:03.535Z,26.50
2023-04-09T02:50:29.972Z,26.08
2023-04-09T02:52:56.452Z,28.35
2023-04-09T02:55:23.257Z,27.88
2023-04-09T02:57:49.695Z,27.63
2023-04-09T03:00:16.293Z,29.40
2023-04-09T03:02:43.001Z,28.10
2023-04-09T03:05:09.775Z,26.70
2023-04-09T03:07:36.187Z,27.58
2023-04-09T03:10:02.681Z,28.13
2023-04-09T03:12:29.139Z,26.80
2023-04-09T03:14:55.743Z,27.27
2023-04-09T03:17:24.600Z,28.27
2023-04-09T03:19:51.196Z,26.58
2023-04-09T03:22:17.568Z,26.58
2023-04-09T03:24:44.049Z,26.17
2023-04-09T03:27:10.556Z,27.05
2023-04-09T03:29:37.032Z,27.02
2023-04-09T03:32:03.472Z,26.88
2023-04-09T03:34:29.917Z,27.42
2023-04-09T03:36:56.350Z,26.15
2023-04-09T03:39:25.066Z,26.70
2023-04-09T03:41:51.510Z,27.70
2023-04-09T03:44:17.931Z,26.98
2023-04-09T03:46:44.373Z,26.88
2023-04-09T03:49:10.830Z,26.30
2023-04-09T03:51:37.256Z,26.20
2023-04-09T03:54:03.851Z,27.65
2023-04-09T03:56:30.316Z,27.10
2023-04-09T03:58:56.729Z,26.58
2023-04-09T04:01:23.177Z,26.30
2023-04-09T04:03:49.921Z,27.02
2023-04-09T04:06:16.472Z,26.42
2023-04-09T04:11:20.443Z,26.83
2023-04-09T04:13:46.937Z,28.00
2023-04-09T04:16:13.450Z,27.33
2023-04-09T04:18:39.992Z,27.33
2023-04-09T04:21:13.040Z,28.65
2023-04-09T04:26:12.471Z,24.17
2023-04-09T04:31:12.474Z,23.90
2023-04-09T04:33:41.175Z,26.25
2023-04-09T04:36:12.877Z,26.15
2023-04-09T04:38:41.256Z,25.77
2023-04-09T04:41:08.235Z,26.42
2023-04-09T04:43:34.952Z,27.80
2023-04-09T04:46:01.867Z,27.85
2023-04-09T04:48:29.276Z,29.10
2023-04-09T04:50:57.623Z,27.85
2023-04-09T04:53:24.271Z,28.70
2023-04-09T04:55:50.954Z,28.20
2023-04-09T04:58:18.048Z,26.73
2023-04-09T05:00:45.301Z,28.30
2023-04-09T05:03:12.708Z,27.58
2023-04-09T05:05:39.288Z,27.90
2023-04-09T05:08:06.017Z,27.30
2023-04-09T05:10:32.533Z,27.65
2023-04-09T05:12:59.087Z,27.60
2023-04-09T05:15:25.586Z,26.95
2023-04-09T05:17:52.415Z,27.33
2023-04-09T05:20:18.853Z,28.33
2023-04-09T05:22:45.394Z,27.80
2023-04-09T05:25:11.849Z,28.98
2023-04-09T05:27:38.338Z,28.10
2023-04-09T05:30:05.043Z,28.17
2023-04-09T05:32:31.587Z,29.63
2023-04-09T05:34:58.173Z,28.77
2023-04-09T05:37:25.424Z,29.58
2023-04-09T05:39:52.018Z,28.98
2023-04-09T05:42:18.671Z,29.08
2023-04-09T05:44:45.308Z,27.15
2023-04-09T05:47:11.772Z,28.35
2023-04-09T05:49:38.349Z,28.17
2023-04-09T05:52:05.064Z,28.35
2023-04-09T05:54:31.963Z,29.35
2023-04-09T05:56:58.504Z,28.67
2023-04-09T05:59:25.028Z,28.15
2023-04-09T06:01:51.507Z,28.15
2023-04-09T06:04:18.415Z,28.10
2023-04-09T06:06:45.886Z,28.85
2023-04-09T06:09:12.698Z,28.95
2023-04-09T06:11:39.234Z,29.00
2023-04-09T06:14:05.859Z,28.50
2023-04-09T06:16:33.688Z,28.23
2023-04-09T06:19:00.189Z,28.85
2023-04-09T06:21:26.829Z,29.02
2023-04-09T06:23:53.958Z,29.05
2023-04-09T06:26:21.153Z,28.70
2023-04-09T06:28:47.748Z,30.10
2023-04-09T06:31:14.339Z,30.40
2023-04-09T06:33:41.259Z,29.02
2023-04-09T06:36:08.111Z,29.98
2023-04-09T06:38:34.620Z,28.35
2023-04-09T06:41:01.140Z,28.83
2023-04-09T06:43:27.825Z,30.67
2023-04-09T06:45:54.338Z,30.00
2023-04-09T06:48:20.899Z,29.50
2023-04-09T06:50:47.483Z,30.40
2023-04-09T06:53:15.138Z,31.08
2023-04-09T06:55:42.091Z,30.67
2023-04-09T06:58:08.646Z,30.98
2023-04-09T07:00:35.491Z,30.42
2023-04-09T07:03:02.609Z,32.00
2023-04-09T07:05:30.725Z,31.05
2023-04-09T07:07:57.186Z,31.25
2023-04-09T07:10:23.786Z,32.17
2023-04-09T07:12:50.258Z,30.45
2023-04-09T07:15:16.773Z,31.45
2023-04-09T07:17:43.368Z,29.77
2023-04-09T07:20:10.465Z,29.25
2023-04-09T07:22:37.097Z,25.80
2023-04-09T07:25:04.030Z,25.85
2023-04-09T07:27:30.535Z,25.77
2023-04-09T07:29:59.118Z,27.90
2023-04-09T07:32:27.912Z,26.48
2023-04-09T07:34:55.741Z,27.77
2023-04-09T07:37:22.327Z,27.92
2023-04-09T07:39:49.647Z,29.27
2023-04-09T07:42:16.115Z,29.05
2023-04-09T07:44:43.849Z,28.58
2023-04-09T07:47:11.271Z,29.17
2023-04-09T07:49:40.988Z,27.65
2023-04-09T07:52:08.167Z,26.65
2023-04-09T07:54:35.430Z,26.00
2023-04-09T07:57:02.089Z,27.13
2023-04-09T07:59:29.653Z,26.67
2023-04-09T08:01:56.782Z,25.23
2023-04-09T08:04:23.501Z,27.35
2023-04-09T08:06:51.110Z,26.58
2023-04-09T08:09:18.687Z,28.30
2023-04-09T08:11:45.860Z,28.05
2023-04-09T08:14:13.078Z,26.85
2023-04-09T08:16:41.628Z,27.45
2023-04-09T08:19:09.294Z,26.83
2023-04-09T08:21:46.100Z,26.58
2023-04-09T08:24:12.868Z,25.70
2023-04-09T08:26:40.339Z,27.13
2023-04-09T08:29:08.423Z,26.80
2023-04-09T08:31:36.557Z,25.88
2023-04-09T08:34:03.425Z,25.80
2023-04-09T08:36:30.072Z,25.10
2023-04-09T08:38:57.061Z,26.02
2023-04-09T08:41:26.171Z,24.55
2023-04-09T08:43:58.248Z,25.40
2023-04-09T08:46:26.135Z,25.17
2023-04-09T08:48:53.362Z,25.13
2023-04-09T08:51:22.371Z,25.27
2023-04-09T08:54:00.777Z,24.55
2023-04-09T08:56:30.459Z,23.48
2023-04-09T08:58:57.028Z,23.13
2023-04-09T09:01:24.417Z,22.45
2023-04-09T09:04:01.820Z,22.52
2023-04-09T09:06:32.950Z,23.45
2023-04-09T09:09:04.973Z,22.00
2023-04-09T09:11:32.486Z,21.98
2023-04-09T09:14:06.872Z,20.00
2023-04-09T09:16:35.889Z,20.90
2023-04-09T09:19:03.106Z,21.30
2023-04-09T09:21:30.199Z,21.60
2023-04-09T09:23:57.663Z,22.45
2023-04-09T09:26:27.240Z,21.13
2023-04-09T09:28:54.009Z,23.60
2023-04-09T09:31:22.462Z,25.10
2023-04-09T09:33:50.597Z,21.73
2023-04-09T09:36:34.363Z,21.02
2023-04-09T09:39:10.093Z,21.63
2023-04-09T09:41:36.978Z,20.35
2023-04-09T09:44:04.555Z,22.08
2023-04-09T09:46:35.771Z,21.92
2023-04-09T09:49:02.520Z,21.00
2023-04-09T09:51:29.146Z,21.80
2023-04-09T09:53:57.221Z,21.83
2023-04-09T09:56:35.084Z,21.67
2023-04-09T09:59:07.883Z,20.48
2023-04-09T10:01:37.553Z,19.35
2023-04-09T10:04:07.099Z,20.15
2023-04-09T10:06:41.664Z,18.67
2023-04-09T10:09:08.582Z,19.60
2023-04-09T10:11:37.058Z,20.30
2023-04-09T10:14:05.115Z,19.60
2023-04-09T10:16:32.064Z,19.23
2023-04-09T10:18:59.729Z,17.80
2023-04-09T10:21:43.996Z,18.60
2023-04-09T10:24:11.192Z,18.83
2023-04-09T10:26:41.750Z,18.23
2023-04-09T10:29:16.635Z,17.85
2023-04-09T10:31:52.346Z,18.83
2023-04-09T10:34:23.559Z,18.08
2023-04-09T10:36:55.941Z,16.50
2023-04-09T10:39:32.004Z,15.35
2023-04-09T10:42:00.105Z,15.80
2023-04-09T10:44:27.905Z,14.73
2023-04-09T10:46:55.390Z,14.07
2023-04-09T10:49:23.495Z,12.07
2023-04-09T10:51:53.605Z,14.88
2023-04-09T10:54:35.224Z,13.73
2023-04-09T10:57:07.654Z,15.45
2023-04-09T10:59:38.642Z,15.75
2023-04-09T11:02:08.923Z,15.57
2023-04-09T11:04:51.876Z,15.30
2023-04-09T11:07:22.273Z,15.60
2023-04-09T11:09:48.742Z,15.90
2023-04-09T11:12:15.326Z,15.85
2023-04-09T11:14:41.747Z,16.40
2023-04-09T11:17:08.271Z,16.58
2023-04-09T11:19:34.886Z,15.45
2023-04-09T11:22:06.448Z,14.13
2023-04-09T11:24:43.280Z,13.40
2023-04-09T11:27:09.813Z,12.65
2023-04-09T11:29:36.633Z,10.95
2023-04-09T11:32:05.136Z,12.27
2023-04-09T11:34:32.271Z,12.38
2023-04-09T11:36:59.752Z,11.68
2023-04-09T11:39:26.378Z,11.30
2023-04-09T11:41:53.230Z,11.63
2023-04-09T11:44:20.960Z,11.05
2023-04-09T11:46:49.151Z,11.45
2023-04-09T11:49:17.200Z,12.23
2023-04-09T11:51:43.710Z,11.98
2023-04-09T11:54:11.870Z,11.32
2023-04-09T11:56:38.399Z,10.95
2023-04-09T11:59:04.947Z,11.57
2023-04-09T12:01:35.293Z,10.90
2023-04-09T12:04:02.058Z,11.48
2023-04-09T12:06:29.700Z,11.80
2023-04-09T12:08:57.349Z,10.25
2023-04-09T12:11:31.712Z,10.95
2023-04-09T12:14:07.641Z,11.05
2023-04-09T12:16:35.468Z,11.05
2023-04-09T12:19:03.418Z,12.00
2023-04-09T12:21:48.935Z,10.68
2023-04-09T12:24:17.090Z,9.95
2023-04-09T12:26:46.016Z,11.57
2023-04-09T12:29:16.977Z,11.55
2023-04-09T12:31:44.521Z,10.50
2023-04-09T12:34:11.206Z,11.15
2023-04-09T12:36:38.889Z,11.15
2023-04-09T12:39:05.439Z,10.23
2023-04-09T12:41:31.907Z,10.35
2023-04-09T12:43:58.459Z,10.55
2023-04-09T12:46:25.808Z,10.38
2023-04-09T12:48:52.292Z,11.60
2023-04-09T12:51:18.867Z,11.02
2023-04-09T12:53:45.292Z,10.95
2023-04-09T12:56:11.730Z,11.55
2023-04-09T12:58:38.480Z,11.18
2023-04-09T13:01:05.404Z,11.68
2023-04-09T13:03:32.344Z,10.88
2023-04-09T13:05:58.973Z,11.13
2023-04-09T13:08:25.469Z,12.00
2023-04-09T13:10:51.952Z,10.60
2023-04-09T13:13:18.388Z,9.48
2023-04-09T13:15:45.010Z,10.45
2023-04-09T13:18:12.756Z,10.13
2023-04-09T13:20:39.394Z,10.15
2023-04-09T13:23:06.347Z,10.43
2023-04-09T13:25:32.838Z,10.32
2023-04-09T13:28:24.037Z,9.98
2023-04-09T13:30:48.022Z,10.00
2023-04-09T13:33:14.510Z,10.30
2023-04-09T13:35:40.984Z,8.77
2023-04-09T13:38:07.600Z,9.77
2023-04-09T13:40:33.989Z,9.48
2023-04-09T13:43:01.017Z,9.40
2023-04-09T13:45:27.472Z,9.82
2023-04-09T13:47:53.980Z,9.38
2023-04-09T13:50:20.438Z,10.10
2023-04-09T13:52:46.879Z,10.35
2023-04-09T13:55:13.293Z,9.57
2023-04-09T13:57:39.722Z,9.50
2023-04-09T14:00:08.104Z,9.63
2023-04-09T14:02:34.747Z,9.50
2023-04-09T14:05:03.568Z,10.13
2023-04-09T14:07:30.781Z,9.48
2023-04-09T14:09:57.265Z,9.73
2023-04-09T14:12:24.927Z,9.55
2023-04-09T14:14:51.800Z,9.25
2023-04-09T14:17:18.341Z,9.20
2023-04-09T14:19:44.780Z,9.73
2023-04-09T14:22:11.471Z,9.68
2023-04-09T14:24:39.879Z,9.27
2023-04-09T14:27:07.690Z,9.48
2023-04-09T14:29:34.614Z,9.85
2023-04-09T14:32:01.322Z,9.30
2023-04-09T14:34:31.219Z,9.30
2023-04-09T14:36:57.771Z,9.52
2023-04-09T14:39:24.333Z,8.27
2023-04-09T14:41:50.869Z,8.68
2023-04-09T14:44:17.610Z,8.32
2023-04-09T14:46:44.258Z,8.73
2023-04-09T14:49:10.679Z,9.68
2023-04-09T14:51:37.312Z,10.82
2023-04-09T14:54:03.816Z,12.23
2023-04-09T14:56:30.311Z,11.63
2023-04-09T14:58:56.833Z,11.95
2023-04-09T15:01:23.267Z,12.15
2023-04-09T15:03:49.909Z,12.02
2023-04-09T15:06:16.614Z,12.15
2023-04-09T15:08:43.130Z,12.90
2023-04-09T15:11:15.805Z,11.65
2023-04-09T15:13:42.342Z,11.07
2023-04-09T15:16:08.945Z,12.27
2023-04-09T15:18:37.329Z,12.15
2023-04-09T15:21:03.935Z,12.15
2023-04-09T15:23:30.707Z,16.13
2023-04-09T15:25:57.237Z,27.13
2023-04-09T15:28:23.750Z,15.95
2023-04-09T15:30:50.417Z,18.65
2023-04-09T15:33:16.863Z,20.17
2023-04-09T15:35:43.323Z,13.73
2023-04-09T15:38:09.851Z,12.98
2023-04-09T15:40:36.363Z,12.65
2023-04-09T15:43:02.765Z,13.13
2023-04-09T15:45:29.264Z,13.07
2023-04-09T15:47:55.755Z,12.00
2023-04-09T15:50:22.278Z,12.73
2023-04-09T15:52:48.930Z,11.65
2023-04-09T15:55:16.040Z,11.18
2023-04-09T15:57:46.641Z,10.50
2023-04-09T16:00:13.377Z,11.07
2023-04-09T16:02:40.852Z,10.25
2023-04-09T16:05:07.793Z,11.07
2023-04-09T16:07:34.928Z,10.18
2023-04-09T16:13:35.716Z,10.20
2023-04-09T16:16:02.480Z,9.82
2023-04-09T16:18:29.424Z,9.70
2023-04-09T16:20:57.126Z,10.63
2023-04-09T16:23:25.331Z,10.43
2023-04-09T16:25:52.227Z,10.65
2023-04-09T16:28:21.610Z,10.88
2023-04-09T16:30:50.281Z,10.23
2023-04-09T16:33:17.007Z,10.18
2023-04-09T16:35:43.566Z,10.05
2023-04-09T16:38:10.341Z,9.23
2023-04-09T16:40:37.066Z,8.82
2023-04-09T16:43:04.276Z,9.63
2023-04-09T16:45:32.033Z,9.25
2023-04-09T16:47:58.656Z,9.32
2023-04-09T16:50:25.321Z,10.25
2023-04-09T16:52:51.935Z,9.38
2023-04-09T16:55:18.489Z,9.88
2023-04-09T16:57:45.065Z,10.40
2023-04-09T17:00:12.796Z,9.85
2023-04-09T17:02:39.611Z,9.73
2023-04-09T17:05:06.676Z,10.18
2023-04-09T17:07:33.643Z,9.85
2023-04-09T17:10:02.829Z,10.25
2023-04-09T17:12:29.395Z,8.95
2023-04-09T17:14:56.020Z,10.05
2023-04-09T17:17:22.520Z,10.30
2023-04-09T17:19:49.094Z,10.23
2023-04-09T17:22:17.779Z,9.63
2023-04-09T17:24:44.932Z,9.82
2023-04-09T17:27:11.433Z,9.82
2023-04-09T17:29:38.060Z,9.10
2023-04-09T17:32:04.736Z,10.57
2023-04-09T17:34:31.322Z,10.57
2023-04-09T17:36:59.772Z,14.38
2023-04-09T17:39:27.100Z,16.92
2023-04-09T17:41:56.381Z,21.75
2023-04-09T17:44:24.978Z,23.80
2023-04-09T17:46:52.013Z,21.50
2023-04-09T17:49:18.492Z,18.33
2023-04-09T17:51:45.092Z,15.77
2023-04-09T17:54:12.513Z,15.63
2023-04-09T17:56:39.129Z,14.98
2023-04-09T17:59:06.731Z,14.73
2023-04-09T18:01:33.464Z,14.95
2023-04-09T18:04:01.570Z,14.35
2023-04-09T18:06:28.394Z,15.20
2023-04-09T18:08:54.903Z,14.40
2023-04-09T18:11:21.650Z,12.45
2023-04-09T18:13:48.439Z,13.30
2023-04-09T18:16:15.141Z,14.13
2023-04-09T18:18:41.618Z,13.95
2023-04-09T18:21:08.178Z,13.82
2023-04-09T18:23:34.887Z,14.18
2023-04-09T18:26:01.778Z,14.20
2023-04-09T18:28:28.334Z,13.10
2023-04-09T18:30:54.971Z,13.02
2023-04-09T18:33:21.680Z,13.00
2023-04-09T18:35:48.229Z,11.82
2023-04-09T18:38:14.967Z,12.68
2023-04-09T18:40:43.558Z,11.77
2023-04-09T18:43:11.763Z,12.05
2023-04-09T18:45:39.637Z,12.90
2023-04-09T18:48:08.059Z,13.65
2023-04-09T18:50:34.933Z,14.38
2023-04-09T18:53:03.415Z,15.43
2023-04-09T18:55:30.142Z,16.05
2023-04-09T18:57:57.541Z,15.68
2023-04-09T19:00:24.117Z,16.27
2023-04-09T19:02:50.908Z,17.02
2023-04-09T19:05:17.626Z,17.15
2023-04-09T19:07:44.037Z,17.35
2023-04-09T19:10:10.828Z,17.58
2023-04-09T19:12:38.038Z,17.58
2023-04-09T19:15:06.145Z,16.58
2023-04-09T19:17:34.023Z,17.83
2023-04-09T19:20:01.072Z,17.65
2023-04-09T19:22:28.122Z,17.15
2023-04-09T19:24:54.698Z,18.08
2023-04-09T19:27:21.135Z,18.55
2023-04-09T19:29:47.698Z,18.05
2023-04-09T19:32:14.744Z,16.33
2023-04-09T19:34:41.331Z,16.58
2023-04-09T19:40:04.693Z,16.20
2023-04-09T19:42:32.878Z,17.27
2023-04-09T19:45:00.353Z,16.95
2023-04-09T19:47:27.755Z,18.98
2023-04-09T19:49:54.521Z,19.27
2023-04-09T19:52:21.326Z,19.23
2023-04-09T19:54:48.093Z,20.45
2023-04-09T19:57:15.322Z,20.25
2023-04-09T19:59:41.967Z,20.05
2023-04-09T20:02:08.811Z,22.10
2023-04-09T20:04:35.657Z,23.20
2023-04-09T20:07:02.178Z,23.67
2023-04-09T20:09:29.170Z,23.42
2023-04-09T20:11:55.800Z,23.90
2023-04-09T20:14:22.415Z,24.90
2023-04-09T20:16:48.985Z,24.23
2023-04-09T20:19:15.537Z,25.88
2023-04-09T20:21:43.551Z,25.52
2023-04-09T20:24:10.084Z,24.45
2023-04-09T20:26:36.704Z,24.88
2023-04-09T20:29:03.186Z,26.83
2023-04-09T20:31:30.944Z,25.52
2023-04-09T20:33:57.591Z,24.63
2023-04-09T20:36:24.308Z,26.25
2023-04-09T20:38:50.857Z,25.48
2023-04-09T20:41:17.481Z,26.67
2023-04-09T20:43:44.108Z,25.67
2023-04-09T20:46:11.025Z,28.15
2023-04-09T20:48:37.962Z,27.90
2023-04-09T20:51:10.066Z,27.15
2023-04-09T20:53:37.524Z,20.73
2023-04-09T20:56:06.047Z,27.83
2023-04-09T20:58:33.475Z,27.42
2023-04-09T21:01:06.430Z,28.67
2023-04-09T21:06:03.528Z,23.67
2023-04-09T21:08:30.826Z,26.15
2023-04-09T21:10:57.401Z,25.23
2023-04-09T21:13:24.333Z,25.65
2023-04-09T21:15:51.290Z,25.60
2023-04-09T21:18:17.899Z,25.13
2023-04-09T21:20:47.703Z,25.33
2023-04-09T21:23:15.072Z,23.42
2023-04-09T21:25:42.076Z,24.67
2023-04-09T21:28:09.009Z,24.50
2023-04-09T21:30:37.820Z,24.77
2023-04-09T21:33:06.627Z,25.10
2023-04-09T21:35:34.084Z,23.80
2023-04-09T21:38:00.668Z,25.25
2023-04-09T21:40:27.205Z,23.27
2023-04-09T21:42:53.723Z,25.30
2023-04-09T21:45:21.140Z,24.60
2023-04-09T21:47:47.671Z,24.05
2023-04-09T21:50:14.733Z,23.83
2023-04-09T21:52:41.750Z,24.98
2023-04-09T21:55:10.311Z,23.38
2023-04-09T21:57:36.875Z,25.35
2023-04-09T22:00:05.336Z,24.35
2023-04-09T22:02:31.966Z,25.08
2023-04-09T22:04:59.957Z,24.40
2023-04-09T22:07:26.816Z,25.85
2023-04-09T22:09:58.107Z,24.17
2023-04-09T22:12:35.146Z,25.17
2023-04-09T22:15:18.914Z,25.90
2023-04-09T22:17:51.065Z,24.55
2023-04-09T22:20:31.432Z,23.63
2023-04-09T22:23:00.915Z,24.50
2023-04-09T22:25:34.805Z,25.38
2023-04-09T22:28:14.766Z,25.27
2023-04-09T22:30:49.752Z,25.33
2023-04-09T22:33:21.592Z,26.25
2023-04-09T22:35:50.356Z,24.38
2023-04-09T22:38:22.817Z,25.15
2023-04-09T22:40:56.060Z,24.30
2023-04-09T22:43:27.195Z,22.95
2023-04-09T22:46:18.113Z,22.02
2023-04-09T22:49:03.902Z,21.92
2023-04-09T22:51:45.452Z,21.27
2023-04-09T22:54:12.092Z,21.25
2023-04-09T22:56:38.639Z,21.00
2023-04-09T22:59:06.101Z,19.65
2023-04-09T23:01:32.774Z,21.02
2023-04-09T23:03:59.256Z,19.35
2023-04-09T23:06:25.901Z,19.13
2023-04-09T23:08:52.545Z,18.83
2023-04-09T23:11:19.369Z,19.35
2023-04-09T23:13:47.050Z,20.40
2023-04-09T23:16:13.976Z,22.65
2023-04-09T23:18:40.723Z,26.20
2023-04-09T23:21:08.717Z,24.52
2023-04-09T23:23:36.353Z,25.55
2023-04-09T23:26:02.923Z,23.85
2023-04-09T23:28:29.883Z,23.30
2023-04-09T23:30:56.888Z,22.25
2023-04-09T23:33:24.017Z,23.33
2023-04-09T23:35:50.938Z,22.23
2023-04-09T23:38:17.632Z,20.77
2023-04-09T23:40:47.203Z,19.85
2023-04-09T23:43:19.337Z,18.80
2023-04-09T23:45:56.199Z,18.97
2023-04-09T23:48:40.000Z,18.63
2023-04-09T23:51:06.691Z,18.17
2023-04-09T23:53:33.233Z,19.45
2023-04-09T23:56:02.024Z,17.85
2023-04-09T23:58:28.504Z,18.60
